Impacts TAF Board
For situational awareness. Not to be used for flight planning purposes.
IDs:

KCNY - Moab/Canyonland Fld, UT, US

Issued at 1131 UTC 30 Oct 2020
Updated at 1658 UTC 30 Oct 2020
Potential Impact None Slight Moderate High
Time1653Z 30/17Z 30/18Z 30/19Z 30/20Z 30/21Z 30/22Z 30/23Z 31/00Z 31/01Z 31/02Z 31/03Z 31/04Z 31/05Z>>
Type OBS PRVL PRVL PRVL PRVL PRVL PRVL PRVL PRVL PRVL PRVL PRVL PRVL PRVL
VIS 10 >6 >6 >6 >6 >6 >6 >6 >6 >6 >6 >6 >6 >6
CIG -- -- -- -- -- -- -- -- -- -- -- -- -- --
Cover CLR SKC SKC SKC SKC SKC SKC SKC SKC SKC SKC SKC SKC SKC
FltCat VFR VFR VFR VFR VFR VFR VFR VFR VFR VFR VFR VFR VFR VFR
WX -- -- -- -- -- -- -- -- -- -- -- -- -- --
WDir VRB VRB VRB VRB VRB VRB VRB VRB VRB VRB VRB VRB VRB VRB
WSpd 0 4 4 4 4 4 4 4 4 4 4 4 4 4
WGst -- -- -- -- -- -- -- -- -- -- -- -- -- --
Raw TAF
KCNY 301131Z 3012/3112 VRB04KT P6SM SKC

Raw METAR
KCNY 301653Z AUTO 00000KT 10SM CLR 10/01 A3027 RMK AO2 SLP245 T01000006
KCNY 301553Z AUTO 15006KT 10SM CLR 08/01 A3029 RMK AO2 SLP255 T00780011
KCNY 301453Z AUTO 00000KT 10SM CLR 03/00 A3028 RMK AO2 SLP255 T00330000 53007
KCNY 301353Z AUTO 00000KT 10SM CLR 01/M02 A3026 RMK AO2 SLP250 T00061017

METAR Board
Radar Display
Forecast Discussion
For situational awareness. Not to be used for flight planning purposes.